sensor_id;sensor_type;location;lat;lon;timestamp;temperature;humidity
2056;DHT22;1033;52.560;13.374;2022-08-19T00:02:05;20.70;99.90
2056;DHT22;1033;52.560;13.374;2022-08-19T00:04:35;20.60;99.90
2056;DHT22;1033;52.560;13.374;2022-08-19T00:07:07;20.60;99.90
2056;DHT22;1033;52.560;13.374;2022-08-19T00:09:36;20.70;99.90
2056;DHT22;1033;52.560;13.374;2022-08-19T00:12:05;20.70;99.90
2056;DHT22;1033;52.560;13.374;2022-08-19T00:14:35;20.70;99.90
2056;DHT22;1033;52.560;13.374;2022-08-19T00:17:06;20.70;99.90
2056;DHT22;1033;52.560;13.374;2022-08-19T00:19:37;20.70;99.90
2056;DHT22;1033;52.560;13.374;2022-08-19T00:22:08;20.70;99.90
2056;DHT22;1033;52.560;13.374;2022-08-19T00:24:37;21.00;99.90
2056;DHT22;1033;52.560;13.374;2022-08-19T00:27:16;21.00;99.90
2056;DHT22;1033;52.560;13.374;2022-08-19T00:29:53;21.00;99.90
2056;DHT22;1033;52.560;13.374;2022-08-19T00:32:22;21.30;99.90
2056;DHT22;1033;52.560;13.374;2022-08-19T00:34:53;21.30;99.90
2056;DHT22;1033;52.560;13.374;2022-08-19T00:37:24;21.30;99.90
2056;DHT22;1033;52.560;13.374;2022-08-19T00:39:54;21.30;55.00
2056;DHT22;1033;52.560;13.374;2022-08-19T00:42:24;21.20;63.30
2056;DHT22;1033;52.560;13.374;2022-08-19T00:44:55;21.20;50.70
2056;DHT22;1033;52.560;13.374;2022-08-19T00:47:25;21.10;66.90
2056;DHT22;1033;52.560;13.374;2022-08-19T00:49:56;21.10;85.70
2056;DHT22;1033;52.560;13.374;2022-08-19T00:52:31;21.20;76.60
2056;DHT22;1033;52.560;13.374;2022-08-19T00:55:04;21.10;99.90
2056;DHT22;1033;52.560;13.374;2022-08-19T00:57:39;21.30;99.90
2056;DHT22;1033;52.560;13.374;2022-08-19T01:00:13;21.60;1.00
2056;DHT22;1033;52.560;13.374;2022-08-19T01:02:46;21.50;1.00
2056;DHT22;1033;52.560;13.374;2022-08-19T01:05:19;21.40;1.00
2056;DHT22;1033;52.560;13.374;2022-08-19T01:07:53;21.40;1.00
2056;DHT22;1033;52.560;13.374;2022-08-19T01:10:27;21.30;1.00
2056;DHT22;1033;52.560;13.374;2022-08-19T01:13:04;21.20;24.50
2056;DHT22;1033;52.560;13.374;2022-08-19T01:15:38;21.10;1.00
2056;DHT22;1033;52.560;13.374;2022-08-19T01:18:13;21.00;1.00
2056;DHT22;1033;52.560;13.374;2022-08-19T01:20:44;21.00;85.80
2056;DHT22;1033;52.560;13.374;2022-08-19T01:23:15;21.00;99.90
2056;DHT22;1033;52.560;13.374;2022-08-19T01:25:46;21.10;1.00
2056;DHT22;1033;52.560;13.374;2022-08-19T01:28:19;21.10;1.00
2056;DHT22;1033;52.560;13.374;2022-08-19T01:31:07;21.10;99.90
2056;DHT22;1033;52.560;13.374;2022-08-19T01:33:55;21.10;99.90
2056;DHT22;1033;52.560;13.374;2022-08-19T01:36:29;21.10;1.00
2056;DHT22;1033;52.560;13.374;2022-08-19T01:39:04;21.20;1.00
2056;DHT22;1033;52.560;13.374;2022-08-19T01:41:37;21.10;99.90
2056;DHT22;1033;52.560;13.374;2022-08-19T01:44:08;21.10;99.90
2056;DHT22;1033;52.560;13.374;2022-08-19T01:46:47;21.00;1.00
2056;DHT22;1033;52.560;13.374;2022-08-19T01:49:20;21.10;1.00
2056;DHT22;1033;52.560;13.374;2022-08-19T01:51:50;21.10;1.00
2056;DHT22;1033;52.560;13.374;2022-08-19T01:54:23;21.10;1.00
2056;DHT22;1033;52.560;13.374;2022-08-19T01:56:58;21.00;12.60
2056;DHT22;1033;52.560;13.374;2022-08-19T01:59:32;21.30;1.00
2056;DHT22;1033;52.560;13.374;2022-08-19T02:02:05;21.30;99.90
2056;DHT22;1033;52.560;13.374;2022-08-19T02:04:36;21.20;99.90
2056;DHT22;1033;52.560;13.374;2022-08-19T02:07:06;21.00;1.00
2056;DHT22;1033;52.560;13.374;2022-08-19T02:09:37;21.00;99.90
2056;DHT22;1033;52.560;13.374;2022-08-19T02:12:07;20.80;99.90
2056;DHT22;1033;52.560;13.374;2022-08-19T02:14:37;20.60;99.90
2056;DHT22;1033;52.560;13.374;2022-08-19T02:17:06;20.40;99.90
2056;DHT22;1033;52.560;13.374;2022-08-19T02:19:35;20.30;99.90
2056;DHT22;1033;52.560;13.374;2022-08-19T02:22:07;20.30;99.90
2056;DHT22;1033;52.560;13.374;2022-08-19T02:24:37;20.30;99.90
2056;DHT22;1033;52.560;13.374;2022-08-19T02:27:06;20.10;99.90
2056;DHT22;1033;52.560;13.374;2022-08-19T02:29:36;20.00;99.90
2056;DHT22;1033;52.560;13.374;2022-08-19T02:32:05;20.00;99.90
2056;DHT22;1033;52.560;13.374;2022-08-19T02:34:34;19.90;99.90
2056;DHT22;1033;52.560;13.374;2022-08-19T02:37:03;19.90;99.90
2056;DHT22;1033;52.560;13.374;2022-08-19T02:39:33;19.90;99.90
2056;DHT22;1033;52.560;13.374;2022-08-19T02:42:02;19.90;99.90
2056;DHT22;1033;52.560;13.374;2022-08-19T02:44:31;19.90;99.90
2056;DHT22;1033;52.560;13.374;2022-08-19T02:47:00;19.90;99.90
2056;DHT22;1033;52.560;13.374;2022-08-19T02:49:31;19.80;99.90
2056;DHT22;1033;52.560;13.374;2022-08-19T02:52:01;19.80;99.90
2056;DHT22;1033;52.560;13.374;2022-08-19T02:54:30;19.80;99.90
2056;DHT22;1033;52.560;13.374;2022-08-19T02:56:59;19.80;99.90
2056;DHT22;1033;52.560;13.374;2022-08-19T02:59:31;19.90;99.90
2056;DHT22;1033;52.560;13.374;2022-08-19T03:02:01;19.80;99.90
2056;DHT22;1033;52.560;13.374;2022-08-19T03:04:30;19.80;99.90
2056;DHT22;1033;52.560;13.374;2022-08-19T03:06:59;19.80;99.90
2056;DHT22;1033;52.560;13.374;2022-08-19T03:09:37;19.80;99.90
2056;DHT22;1033;52.560;13.374;2022-08-19T03:12:06;19.90;99.90
2056;DHT22;1033;52.560;13.374;2022-08-19T03:14:37;19.90;99.90
2056;DHT22;1033;52.560;13.374;2022-08-19T03:17:07;19.90;99.90
2056;DHT22;1033;52.560;13.374;2022-08-19T03:19:36;19.90;99.90
2056;DHT22;1033;52.560;13.374;2022-08-19T03:22:06;19.80;99.90
2056;DHT22;1033;52.560;13.374;2022-08-19T03:24:35;19.90;99.90
2056;DHT22;1033;52.560;13.374;2022-08-19T03:27:05;19.80;99.90
2056;DHT22;1033;52.560;13.374;2022-08-19T03:29:38;19.80;99.90
2056;DHT22;1033;52.560;13.374;2022-08-19T03:32:10;19.80;99.90
2056;DHT22;1033;52.560;13.374;2022-08-19T03:34:58;19.80;99.90
2056;DHT22;1033;52.560;13.374;2022-08-19T03:37:27;19.70;99.90
2056;DHT22;1033;52.560;13.374;2022-08-19T03:39:56;19.70;99.90
2056;DHT22;1033;52.560;13.374;2022-08-19T03:42:26;19.60;99.90
2056;DHT22;1033;52.560;13.374;2022-08-19T03:45:16;19.60;99.90
2056;DHT22;1033;52.560;13.374;2022-08-19T03:47:46;19.60;99.90
2056;DHT22;1033;52.560;13.374;2022-08-19T03:50:15;19.70;99.90
2056;DHT22;1033;52.560;13.374;2022-08-19T03:52:48;19.70;99.90
2056;DHT22;1033;52.560;13.374;2022-08-19T03:55:19;19.70;99.90
2056;DHT22;1033;52.560;13.374;2022-08-19T03:57:48;19.70;99.90
2056;DHT22;1033;52.560;13.374;2022-08-19T04:00:18;19.70;99.90
2056;DHT22;1033;52.560;13.374;2022-08-19T04:02:48;19.70;99.90
2056;DHT22;1033;52.560;13.374;2022-08-19T04:05:27;19.70;99.90
2056;DHT22;1033;52.560;13.374;2022-08-19T04:07:56;19.70;99.90
2056;DHT22;1033;52.560;13.374;2022-08-19T04:10:26;19.70;99.90
2056;DHT22;1033;52.560;13.374;2022-08-19T04:12:55;19.70;99.90
2056;DHT22;1033;52.560;13.374;2022-08-19T04:15:26;19.80;99.90
2056;DHT22;1033;52.560;13.374;2022-08-19T04:17:56;19.70;99.90
2056;DHT22;1033;52.560;13.374;2022-08-19T04:20:25;19.80;99.90
2056;DHT22;1033;52.560;13.374;2022-08-19T04:22:54;19.80;99.90
2056;DHT22;1033;52.560;13.374;2022-08-19T04:25:25;19.80;99.90
2056;DHT22;1033;52.560;13.374;2022-08-19T04:27:54;19.90;99.90
2056;DHT22;1033;52.560;13.374;2022-08-19T04:30:23;19.90;99.90
2056;DHT22;1033;52.560;13.374;2022-08-19T04:32:53;19.90;99.90
2056;DHT22;1033;52.560;13.374;2022-08-19T04:35:22;19.90;99.90
2056;DHT22;1033;52.560;13.374;2022-08-19T04:37:51;20.00;99.90
2056;DHT22;1033;52.560;13.374;2022-08-19T04:40:20;20.00;99.90
2056;DHT22;1033;52.560;13.374;2022-08-19T04:43:07;20.00;99.90
2056;DHT22;1033;52.560;13.374;2022-08-19T04:45:42;20.00;99.90
2056;DHT22;1033;52.560;13.374;2022-08-19T04:48:13;20.00;99.90
2056;DHT22;1033;52.560;13.374;2022-08-19T04:50:54;20.00;99.90
2056;DHT22;1033;52.560;13.374;2022-08-19T04:53:26;19.90;99.90
2056;DHT22;1033;52.560;13.374;2022-08-19T04:56:06;19.90;99.90
2056;DHT22;1033;52.560;13.374;2022-08-19T04:58:38;20.00;99.90
2056;DHT22;1033;52.560;13.374;2022-08-19T05:01:11;19.90;99.90
2056;DHT22;1033;52.560;13.374;2022-08-19T05:03:43;20.00;99.90
2056;DHT22;1033;52.560;13.374;2022-08-19T05:06:13;20.00;99.90
2056;DHT22;1033;52.560;13.374;2022-08-19T05:08:44;20.00;99.90
2056;DHT22;1033;52.560;13.374;2022-08-19T05:11:16;20.00;99.90
2056;DHT22;1033;52.560;13.374;2022-08-19T05:13:52;20.30;99.90
2056;DHT22;1033;52.560;13.374;2022-08-19T05:16:23;20.70;99.90
2056;DHT22;1033;52.560;13.374;2022-08-19T05:18:55;21.00;99.90
2056;DHT22;1033;52.560;13.374;2022-08-19T05:21:42;21.20;99.90
2056;DHT22;1033;52.560;13.374;2022-08-19T05:24:30;20.90;99.90
2056;DHT22;1033;52.560;13.374;2022-08-19T05:27:01;20.70;99.90
2056;DHT22;1033;52.560;13.374;2022-08-19T05:29:32;20.70;99.90
2056;DHT22;1033;52.560;13.374;2022-08-19T05:32:03;20.70;99.90
2056;DHT22;1033;52.560;13.374;2022-08-19T05:34:37;20.80;99.90
2056;DHT22;1033;52.560;13.374;2022-08-19T05:37:07;20.80;99.90
2056;DHT22;1033;52.560;13.374;2022-08-19T05:39:37;21.00;99.90
2056;DHT22;1033;52.560;13.374;2022-08-19T05:42:10;21.00;99.90
2056;DHT22;1033;52.560;13.374;2022-08-19T05:44:42;21.00;99.90
2056;DHT22;1033;52.560;13.374;2022-08-19T05:47:13;21.10;99.90
2056;DHT22;1033;52.560;13.374;2022-08-19T05:49:44;21.20;99.90
2056;DHT22;1033;52.560;13.374;2022-08-19T05:52:14;21.30;99.90
2056;DHT22;1033;52.560;13.374;2022-08-19T05:54:46;21.40;99.90
2056;DHT22;1033;52.560;13.374;2022-08-19T05:57:18;21.40;99.90
2056;DHT22;1033;52.560;13.374;2022-08-19T05:59:47;21.50;99.90
2056;DHT22;1033;52.560;13.374;2022-08-19T06:02:24;21.50;99.90
2056;DHT22;1033;52.560;13.374;2022-08-19T06:04:55;21.70;99.90
2056;DHT22;1033;52.560;13.374;2022-08-19T06:07:24;21.80;99.90
2056;DHT22;1033;52.560;13.374;2022-08-19T06:09:54;22.10;99.90
2056;DHT22;1033;52.560;13.374;2022-08-19T06:12:27;22.10;99.90
2056;DHT22;1033;52.560;13.374;2022-08-19T06:14:59;22.20;99.90
2056;DHT22;1033;52.560;13.374;2022-08-19T06:17:29;22.00;99.90
2056;DHT22;1033;52.560;13.374;2022-08-19T06:20:00;22.10;99.90
2056;DHT22;1033;52.560;13.374;2022-08-19T06:22:31;22.10;99.90
2056;DHT22;1033;52.560;13.374;2022-08-19T06:25:00;22.00;99.90
2056;DHT22;1033;52.560;13.374;2022-08-19T06:27:29;22.00;99.90
2056;DHT22;1033;52.560;13.374;2022-08-19T06:30:00;22.10;99.90
2056;DHT22;1033;52.560;13.374;2022-08-19T06:32:29;22.10;99.90
2056;DHT22;1033;52.560;13.374;2022-08-19T06:35:10;22.10;99.90
2056;DHT22;1033;52.560;13.374;2022-08-19T06:37:41;22.10;99.90
2056;DHT22;1033;52.560;13.374;2022-08-19T06:40:12;22.20;99.90
2056;DHT22;1033;52.560;13.374;2022-08-19T06:42:41;22.40;99.90
2056;DHT22;1033;52.560;13.374;2022-08-19T06:45:20;22.50;99.90
2056;DHT22;1033;52.560;13.374;2022-08-19T06:47:51;22.50;99.90
2056;DHT22;1033;52.560;13.374;2022-08-19T06:50:25;22.60;99.90
2056;DHT22;1033;52.560;13.374;2022-08-19T06:52:54;22.70;99.90
2056;DHT22;1033;52.560;13.374;2022-08-19T06:55:24;22.60;99.90
2056;DHT22;1033;52.560;13.374;2022-08-19T06:58:01;22.60;99.90
2056;DHT22;1033;52.560;13.374;2022-08-19T07:00:31;22.70;99.90
2056;DHT22;1033;52.560;13.374;2022-08-19T07:03:01;22.70;99.90
2056;DHT22;1033;52.560;13.374;2022-08-19T07:05:40;22.60;99.90
2056;DHT22;1033;52.560;13.374;2022-08-19T07:08:12;22.60;99.90
2056;DHT22;1033;52.560;13.374;2022-08-19T07:10:45;22.70;99.90
2056;DHT22;1033;52.560;13.374;2022-08-19T07:13:16;22.70;99.90
2056;DHT22;1033;52.560;13.374;2022-08-19T07:15:46;22.70;99.90
2056;DHT22;1033;52.560;13.374;2022-08-19T07:18:18;22.60;99.90
2056;DHT22;1033;52.560;13.374;2022-08-19T07:20:49;22.50;99.90
2056;DHT22;1033;52.560;13.374;2022-08-19T07:23:18;22.50;99.90
2056;DHT22;1033;52.560;13.374;2022-08-19T07:25:49;22.50;99.90
2056;DHT22;1033;52.560;13.374;2022-08-19T07:28:19;22.50;99.90
2056;DHT22;1033;52.560;13.374;2022-08-19T07:30:51;22.60;99.90
2056;DHT22;1033;52.560;13.374;2022-08-19T07:33:21;22.60;99.90
2056;DHT22;1033;52.560;13.374;2022-08-19T07:35:55;22.80;99.90
2056;DHT22;1033;52.560;13.374;2022-08-19T07:38:24;22.90;99.90
2056;DHT22;1033;52.560;13.374;2022-08-19T07:40:53;22.80;99.90
2056;DHT22;1033;52.560;13.374;2022-08-19T07:43:22;22.90;99.90
2056;DHT22;1033;52.560;13.374;2022-08-19T07:46:01;22.90;99.90
2056;DHT22;1033;52.560;13.374;2022-08-19T07:48:30;22.90;99.90
2056;DHT22;1033;52.560;13.374;2022-08-19T07:51:03;23.00;99.90
2056;DHT22;1033;52.560;13.374;2022-08-19T07:53:36;23.00;99.90
2056;DHT22;1033;52.560;13.374;2022-08-19T07:56:06;23.00;99.90
2056;DHT22;1033;52.560;13.374;2022-08-19T07:58:39;23.00;99.90
2056;DHT22;1033;52.560;13.374;2022-08-19T08:01:12;23.00;99.90
2056;DHT22;1033;52.560;13.374;2022-08-19T08:03:43;23.10;99.90
2056;DHT22;1033;52.560;13.374;2022-08-19T08:06:34;23.10;99.90
2056;DHT22;1033;52.560;13.374;2022-08-19T08:09:23;23.10;99.90
2056;DHT22;1033;52.560;13.374;2022-08-19T08:11:56;23.00;99.90
2056;DHT22;1033;52.560;13.374;2022-08-19T08:14:47;23.00;99.90
2056;DHT22;1033;52.560;13.374;2022-08-19T08:17:24;22.90;99.90
2056;DHT22;1033;52.560;13.374;2022-08-19T08:20:15;22.90;99.90
2056;DHT22;1033;52.560;13.374;2022-08-19T08:22:46;22.90;99.90
2056;DHT22;1033;52.560;13.374;2022-08-19T08:25:34;22.90;1.00
2056;DHT22;1033;52.560;13.374;2022-08-19T08:28:05;23.00;1.00
2056;DHT22;1033;52.560;13.374;2022-08-19T08:30:44;23.10;99.90
2056;DHT22;1033;52.560;13.374;2022-08-19T08:33:18;23.20;99.90
2056;DHT22;1033;52.560;13.374;2022-08-19T08:36:01;23.20;99.90
2056;DHT22;1033;52.560;13.374;2022-08-19T08:38:34;23.20;30.40
2056;DHT22;1033;52.560;13.374;2022-08-19T08:41:14;23.20;99.90
2056;DHT22;1033;52.560;13.374;2022-08-19T08:43:51;23.30;99.90
2056;DHT22;1033;52.560;13.374;2022-08-19T08:46:25;23.20;27.20
2056;DHT22;1033;52.560;13.374;2022-08-19T08:49:04;23.00;99.90
2056;DHT22;1033;52.560;13.374;2022-08-19T08:51:46;22.80;1.00
2056;DHT22;1033;52.560;13.374;2022-08-19T08:54:32;22.80;1.00
2056;DHT22;1033;52.560;13.374;2022-08-19T08:57:07;22.70;1.00
2056;DHT22;1033;52.560;13.374;2022-08-19T08:59:42;22.80;99.90
2056;DHT22;1033;52.560;13.374;2022-08-19T09:02:18;22.90;99.90
2056;DHT22;1033;52.560;13.374;2022-08-19T09:04:47;23.00;99.90
2056;DHT22;1033;52.560;13.374;2022-08-19T09:07:26;23.00;99.90
2056;DHT22;1033;52.560;13.374;2022-08-19T09:10:23;23.10;99.90
2056;DHT22;1033;52.560;13.374;2022-08-19T09:13:04;23.00;1.00
2056;DHT22;1033;52.560;13.374;2022-08-19T09:15:45;23.00;99.90
2056;DHT22;1033;52.560;13.374;2022-08-19T09:18:17;23.20;3.00
2056;DHT22;1033;52.560;13.374;2022-08-19T09:20:47;23.00;16.60
2056;DHT22;1033;52.560;13.374;2022-08-19T09:23:16;23.00;1.00
2056;DHT22;1033;52.560;13.374;2022-08-19T09:25:54;23.00;1.00
2056;DHT22;1033;52.560;13.374;2022-08-19T09:28:24;23.20;1.00
2056;DHT22;1033;52.560;13.374;2022-08-19T09:30:54;23.50;1.00
2056;DHT22;1033;52.560;13.374;2022-08-19T09:33:23;23.70;1.00
2056;DHT22;1033;52.560;13.374;2022-08-19T09:36:02;23.90;99.90
2056;DHT22;1033;52.560;13.374;2022-08-19T09:38:35;24.20;99.90
2056;DHT22;1033;52.560;13.374;2022-08-19T09:41:14;24.60;99.90
2056;DHT22;1033;52.560;13.374;2022-08-19T09:43:47;24.70;99.90
2056;DHT22;1033;52.560;13.374;2022-08-19T09:46:20;24.60;99.90
2056;DHT22;1033;52.560;13.374;2022-08-19T09:48:50;24.50;99.90
2056;DHT22;1033;52.560;13.374;2022-08-19T09:51:22;24.50;99.90
2056;DHT22;1033;52.560;13.374;2022-08-19T09:53:59;24.50;99.90
2056;DHT22;1033;52.560;13.374;2022-08-19T09:56:32;24.50;99.90
2056;DHT22;1033;52.560;13.374;2022-08-19T09:59:03;24.70;99.90
2056;DHT22;1033;52.560;13.374;2022-08-19T10:01:32;25.10;99.90
2056;DHT22;1033;52.560;13.374;2022-08-19T10:04:02;25.20;99.90
2056;DHT22;1033;52.560;13.374;2022-08-19T10:06:48;25.40;99.90
2056;DHT22;1033;52.560;13.374;2022-08-19T10:09:21;25.30;99.90
2056;DHT22;1033;52.560;13.374;2022-08-19T10:12:03;25.20;99.90
2056;DHT22;1033;52.560;13.374;2022-08-19T10:14:37;25.10;99.90
2056;DHT22;1033;52.560;13.374;2022-08-19T10:17:06;25.00;99.90
2056;DHT22;1033;52.560;13.374;2022-08-19T10:19:48;24.70;99.90
2056;DHT22;1033;52.560;13.374;2022-08-19T10:22:22;24.50;99.90
2056;DHT22;1033;52.560;13.374;2022-08-19T10:24:52;24.40;99.90
2056;DHT22;1033;52.560;13.374;2022-08-19T10:27:23;24.30;99.90
2056;DHT22;1033;52.560;13.374;2022-08-19T10:29:52;24.20;99.90
2056;DHT22;1033;52.560;13.374;2022-08-19T10:32:24;24.20;99.90
2056;DHT22;1033;52.560;13.374;2022-08-19T10:35:01;24.10;99.90
2056;DHT22;1033;52.560;13.374;2022-08-19T10:37:32;23.90;99.90
2056;DHT22;1033;52.560;13.374;2022-08-19T10:40:02;23.70;99.90
2056;DHT22;1033;52.560;13.374;2022-08-19T10:42:34;23.80;99.90
2056;DHT22;1033;52.560;13.374;2022-08-19T10:45:05;23.90;99.90
2056;DHT22;1033;52.560;13.374;2022-08-19T10:47:37;24.10;99.90
2056;DHT22;1033;52.560;13.374;2022-08-19T10:50:07;24.30;99.90
2056;DHT22;1033;52.560;13.374;2022-08-19T10:52:54;24.20;99.90
2056;DHT22;1033;52.560;13.374;2022-08-19T10:55:24;24.40;99.90
2056;DHT22;1033;52.560;13.374;2022-08-19T10:58:13;24.30;99.90
2056;DHT22;1033;52.560;13.374;2022-08-19T11:00:46;23.90;99.90
2056;DHT22;1033;52.560;13.374;2022-08-19T11:03:21;23.70;99.90
2056;DHT22;1033;52.560;13.374;2022-08-19T11:05:57;23.70;99.90
2056;DHT22;1033;52.560;13.374;2022-08-19T11:08:27;23.40;99.90
2056;DHT22;1033;52.560;13.374;2022-08-19T11:11:00;23.20;99.90
2056;DHT22;1033;52.560;13.374;2022-08-19T11:13:35;23.20;99.90
2056;DHT22;1033;52.560;13.374;2022-08-19T11:16:09;23.20;99.90
2056;DHT22;1033;52.560;13.374;2022-08-19T11:18:43;23.20;99.90
2056;DHT22;1033;52.560;13.374;2022-08-19T11:21:16;23.20;99.90
2056;DHT22;1033;52.560;13.374;2022-08-19T11:23:48;23.40;99.90
2056;DHT22;1033;52.560;13.374;2022-08-19T11:26:20;23.70;99.90
2056;DHT22;1033;52.560;13.374;2022-08-19T11:28:51;23.80;99.90
2056;DHT22;1033;52.560;13.374;2022-08-19T11:31:24;23.90;99.90
2056;DHT22;1033;52.560;13.374;2022-08-19T11:33:56;24.00;99.90
2056;DHT22;1033;52.560;13.374;2022-08-19T11:36:27;23.90;99.90
2056;DHT22;1033;52.560;13.374;2022-08-19T11:38:56;23.90;99.90
2056;DHT22;1033;52.560;13.374;2022-08-19T11:41:26;23.50;99.90
2056;DHT22;1033;52.560;13.374;2022-08-19T11:43:57;23.50;99.90
2056;DHT22;1033;52.560;13.374;2022-08-19T11:46:26;23.20;99.90
2056;DHT22;1033;52.560;13.374;2022-08-19T11:48:56;23.00;99.90
2056;DHT22;1033;52.560;13.374;2022-08-19T11:51:27;23.10;99.90
2056;DHT22;1033;52.560;13.374;2022-08-19T11:53:58;23.20;99.90
2056;DHT22;1033;52.560;13.374;2022-08-19T11:56:28;23.30;99.90
2056;DHT22;1033;52.560;13.374;2022-08-19T11:59:00;23.30;99.90
2056;DHT22;1033;52.560;13.374;2022-08-19T12:01:30;23.30;99.90
2056;DHT22;1033;52.560;13.374;2022-08-19T12:03:59;23.30;99.90
2056;DHT22;1033;52.560;13.374;2022-08-19T12:06:32;23.50;99.90
2056;DHT22;1033;52.560;13.374;2022-08-19T12:09:04;23.80;99.90
2056;DHT22;1033;52.560;13.374;2022-08-19T12:11:36;23.80;99.90
2056;DHT22;1033;52.560;13.374;2022-08-19T12:14:09;23.90;99.90
2056;DHT22;1033;52.560;13.374;2022-08-19T12:16:44;24.00;99.90
2056;DHT22;1033;52.560;13.374;2022-08-19T12:19:18;23.90;99.90
2056;DHT22;1033;52.560;13.374;2022-08-19T12:21:49;23.70;99.90
2056;DHT22;1033;52.560;13.374;2022-08-19T12:24:18;23.60;99.90
2056;DHT22;1033;52.560;13.374;2022-08-19T12:26:50;23.50;99.90
2056;DHT22;1033;52.560;13.374;2022-08-19T12:29:22;23.60;99.90
2056;DHT22;1033;52.560;13.374;2022-08-19T12:31:56;23.70;99.90
2056;DHT22;1033;52.560;13.374;2022-08-19T12:34:31;24.00;99.90
2056;DHT22;1033;52.560;13.374;2022-08-19T12:37:03;24.10;99.90
2056;DHT22;1033;52.560;13.374;2022-08-19T12:39:38;24.00;99.90
2056;DHT22;1033;52.560;13.374;2022-08-19T12:42:10;24.00;99.90
2056;DHT22;1033;52.560;13.374;2022-08-19T12:44:43;24.00;99.90
2056;DHT22;1033;52.560;13.374;2022-08-19T12:47:13;24.00;99.90
2056;DHT22;1033;52.560;13.374;2022-08-19T12:49:45;24.10;99.90
2056;DHT22;1033;52.560;13.374;2022-08-19T12:52:23;24.30;99.90
2056;DHT22;1033;52.560;13.374;2022-08-19T12:54:55;24.50;99.90
2056;DHT22;1033;52.560;13.374;2022-08-19T12:57:27;24.50;99.90
2056;DHT22;1033;52.560;13.374;2022-08-19T13:00:04;24.70;99.90
2056;DHT22;1033;52.560;13.374;2022-08-19T13:02:38;24.80;99.90
2056;DHT22;1033;52.560;13.374;2022-08-19T13:05:10;24.90;99.90
2056;DHT22;1033;52.560;13.374;2022-08-19T13:07:41;24.90;99.90
2056;DHT22;1033;52.560;13.374;2022-08-19T13:10:14;25.00;99.90
2056;DHT22;1033;52.560;13.374;2022-08-19T13:12:46;25.00;99.90
2056;DHT22;1033;52.560;13.374;2022-08-19T13:15:19;25.10;99.90
2056;DHT22;1033;52.560;13.374;2022-08-19T13:17:52;25.30;99.90
2056;DHT22;1033;52.560;13.374;2022-08-19T13:20:23;25.40;99.90
2056;DHT22;1033;52.560;13.374;2022-08-19T13:22:53;25.50;99.90
2056;DHT22;1033;52.560;13.374;2022-08-19T13:25:24;25.30;99.90
2056;DHT22;1033;52.560;13.374;2022-08-19T13:27:53;25.60;99.90
2056;DHT22;1033;52.560;13.374;2022-08-19T13:30:24;25.70;99.90
2056;DHT22;1033;52.560;13.374;2022-08-19T13:33:11;25.50;99.90
2056;DHT22;1033;52.560;13.374;2022-08-19T13:35:46;25.40;99.90
2056;DHT22;1033;52.560;13.374;2022-08-19T13:38:18;25.30;99.90
2056;DHT22;1033;52.560;13.374;2022-08-19T13:40:49;25.30;99.90
2056;DHT22;1033;52.560;13.374;2022-08-19T13:43:21;25.30;99.90
2056;DHT22;1033;52.560;13.374;2022-08-19T13:45:55;25.30;99.90
2056;DHT22;1033;52.560;13.374;2022-08-19T13:48:25;25.10;99.90
2056;DHT22;1033;52.560;13.374;2022-08-19T13:50:55;24.60;99.90
2056;DHT22;1033;52.560;13.374;2022-08-19T13:53:24;24.60;99.90
2056;DHT22;1033;52.560;13.374;2022-08-19T13:55:53;24.50;99.90
2056;DHT22;1033;52.560;13.374;2022-08-19T13:58:22;24.30;99.90
2056;DHT22;1033;52.560;13.374;2022-08-19T14:00:51;24.20;99.90
2056;DHT22;1033;52.560;13.374;2022-08-19T14:03:21;24.10;99.90
2056;DHT22;1033;52.560;13.374;2022-08-19T14:05:50;24.10;99.90
2056;DHT22;1033;52.560;13.374;2022-08-19T14:08:20;24.10;99.90
2056;DHT22;1033;52.560;13.374;2022-08-19T14:10:49;24.10;99.90
2056;DHT22;1033;52.560;13.374;2022-08-19T14:13:20;24.20;99.90
2056;DHT22;1033;52.560;13.374;2022-08-19T14:15:50;24.40;99.90
2056;DHT22;1033;52.560;13.374;2022-08-19T14:18:21;24.40;99.90
2056;DHT22;1033;52.560;13.374;2022-08-19T14:20:55;24.70;99.90
2056;DHT22;1033;52.560;13.374;2022-08-19T14:23:25;24.70;99.90
2056;DHT22;1033;52.560;13.374;2022-08-19T14:26:02;24.80;99.90
2056;DHT22;1033;52.560;13.374;2022-08-19T14:28:32;24.90;99.90
2056;DHT22;1033;52.560;13.374;2022-08-19T14:31:01;24.80;99.90
2056;DHT22;1033;52.560;13.374;2022-08-19T14:33:31;25.00;99.90
2056;DHT22;1033;52.560;13.374;2022-08-19T14:36:00;25.00;99.40
2056;DHT22;1033;52.560;13.374;2022-08-19T14:38:29;24.90;96.90
2056;DHT22;1033;52.560;13.374;2022-08-19T14:41:07;24.70;96.40
2056;DHT22;1033;52.560;13.374;2022-08-19T14:43:38;24.70;98.90
2056;DHT22;1033;52.560;13.374;2022-08-19T14:46:07;24.70;97.50
2056;DHT22;1033;52.560;13.374;2022-08-19T14:48:39;24.50;96.50
2056;DHT22;1033;52.560;13.374;2022-08-19T14:51:08;24.40;98.30
2056;DHT22;1033;52.560;13.374;2022-08-19T14:53:37;24.30;99.90
2056;DHT22;1033;52.560;13.374;2022-08-19T14:56:08;24.20;99.90
2056;DHT22;1033;52.560;13.374;2022-08-19T14:58:39;24.10;99.90
2056;DHT22;1033;52.560;13.374;2022-08-19T15:01:10;24.30;99.90
2056;DHT22;1033;52.560;13.374;2022-08-19T15:03:41;24.30;99.90
2056;DHT22;1033;52.560;13.374;2022-08-19T15:06:10;24.30;99.90
2056;DHT22;1033;52.560;13.374;2022-08-19T15:08:41;24.20;99.90
2056;DHT22;1033;52.560;13.374;2022-08-19T15:11:14;24.20;99.90
2056;DHT22;1033;52.560;13.374;2022-08-19T15:13:44;24.10;99.90
2056;DHT22;1033;52.560;13.374;2022-08-19T15:16:14;23.90;99.90
2056;DHT22;1033;52.560;13.374;2022-08-19T15:18:48;23.80;99.90
2056;DHT22;1033;52.560;13.374;2022-08-19T15:21:19;23.70;99.90
2056;DHT22;1033;52.560;13.374;2022-08-19T15:23:54;23.60;99.90
2056;DHT22;1033;52.560;13.374;2022-08-19T15:26:25;23.70;99.90
2056;DHT22;1033;52.560;13.374;2022-08-19T15:28:55;23.80;99.90
2056;DHT22;1033;52.560;13.374;2022-08-19T15:31:24;23.70;99.90
2056;DHT22;1033;52.560;13.374;2022-08-19T15:33:56;23.70;99.90
2056;DHT22;1033;52.560;13.374;2022-08-19T15:36:26;23.60;99.90
2056;DHT22;1033;52.560;13.374;2022-08-19T15:38:56;23.50;99.90
2056;DHT22;1033;52.560;13.374;2022-08-19T15:41:28;23.40;99.90
2056;DHT22;1033;52.560;13.374;2022-08-19T15:44:01;23.40;99.90
2056;DHT22;1033;52.560;13.374;2022-08-19T15:46:33;23.20;99.90
2056;DHT22;1033;52.560;13.374;2022-08-19T15:49:05;23.00;99.90
2056;DHT22;1033;52.560;13.374;2022-08-19T15:51:36;22.90;99.90
2056;DHT22;1033;52.560;13.374;2022-08-19T15:54:08;22.80;99.90
2056;DHT22;1033;52.560;13.374;2022-08-19T15:56:39;22.80;99.90
2056;DHT22;1033;52.560;13.374;2022-08-19T15:59:26;22.70;99.90
2056;DHT22;1033;52.560;13.374;2022-08-19T16:02:14;22.70;99.90
2056;DHT22;1033;52.560;13.374;2022-08-19T16:05:08;22.70;99.90
2056;DHT22;1033;52.560;13.374;2022-08-19T16:07:56;22.70;99.90
2056;DHT22;1033;52.560;13.374;2022-08-19T16:10:25;22.70;99.90
2056;DHT22;1033;52.560;13.374;2022-08-19T16:12:55;22.70;99.90
2056;DHT22;1033;52.560;13.374;2022-08-19T16:15:26;22.70;99.90
2056;DHT22;1033;52.560;13.374;2022-08-19T16:17:57;22.70;99.90
2056;DHT22;1033;52.560;13.374;2022-08-19T16:20:31;22.60;99.90
2056;DHT22;1033;52.560;13.374;2022-08-19T16:23:01;22.50;99.90